CheckWX is a tool to help pilots better visualize weather data.  It is not intended as a substitute for an official pre-flight weather briefing.

07:02:06 UTC

GVBA TAF
Rabil Airport
Rabil, Cape Verde
TAF COR GVBA 202300Z 2100/2206 05014KT 9999 BKN015 PROB30 TEMPO 2102/2108 8000 -DZ

Sep-21@
00:00 UTC

Sep-21 @ 00:00 UTC

Sep-22@
06:00 UTC

Sep-22 @ 06:00 UTC

TAF COR GVBA 202300Z 2100/2206 05014KT 9999 BKN015
Wind
  • 050° at 14 KTS
Cloud Levels
  • Broken at 1,500' AGL

Sep-21@
02:00 UTC

Sep-21 @ 02:00 UTC

Sep-21@
08:00 UTC

Sep-21 @ 08:00 UTC

PROB30 TEMPO 2102/2108 8000 -DZ

Temporary - 30% Likelihood

Temporary - 30% Likelihood during this time.

Conditions
Light Drizzle